Portada
METAR-TAF:

METAR-TAF

Aeropuertos :

Aeropuerto de Valencia

Valencia, España

latitud: 39-30N, longitud: 000-28W, altitud: 69 m

Observación

El informe se hizo hace 30 minutos, a las 22:30 UTC
Viento 5 kt del oeste
Temperatura 15°C
Humedad 63%
Presión 1022 hPa
Visibilidad 10 km o más
sin nubes por debajo de 1500 m y sin presencia de cumulonimbus.

METAR: LEVC 152230Z 28005KT CAVOK 15/08 Q1022 NOSIG

Hora: 00:00 (23:00 UTC)

Pronóstico

El informe se hizo hace 1 hora y 17 minutos, a las 21:43 UTC
Pronóstico válido del 15 a las 21 UTC al 16 a las 18 UTC
Viento 12 kt del oeste
Visibilidad 10 km o más
Escasas nubes a una altura de 3000 ft
Temporalmente
del 16 a las 11 UTC al 16 a las 17 UTC
Viento 15 kt del oeste con ráfagas de 30 kt

TAF: LEVC 152143Z 1521/1618 27012KT 9999 FEW030 TX21/1612Z TN09/1606Z TEMPO 1611/1617 27015G30KT

Observaciones y pronósticos meteorológicos de más de 4000 aeropuertos (mensajes METAR y TAF).

Los puntos amarillos y rojos representan las estaciones disponibles.

Ponga el ratón en el punto deseado para ver el nombre de la estación.

Haga clic para ver las observaciones y los pronósticos meteorológicos.

Para cambiar el mapa : haga clic en los botones verdes con una cruz de color negro para hacer un zoom, en el botón verde con un guión para alejar o en las flechas verdes para mapas adyacentes.


METAR-TAF: